sensor_id;sensor_type;location;lat;lon;timestamp;pressure;altitude;pressure_sealevel;temperature;humidity
54042;BME280;41156;51.508;5.406;2023-03-25T00:02:58;100128.34;;;9.16;100.00
54042;BME280;41156;51.508;5.406;2023-03-25T00:05:59;100122.94;;;9.16;100.00
54042;BME280;41156;51.508;5.406;2023-03-25T00:08:59;100129.75;;;9.19;100.00
54042;BME280;41156;51.508;5.406;2023-03-25T00:12:01;100129.75;;;9.19;100.00
54042;BME280;41156;51.508;5.406;2023-03-25T00:15:01;100134.78;;;9.15;100.00
54042;BME280;41156;51.508;5.406;2023-03-25T00:18:02;100134.41;;;9.12;100.00
54042;BME280;41156;51.508;5.406;2023-03-25T00:21:03;100134.63;;;9.10;100.00
54042;BME280;41156;51.508;5.406;2023-03-25T00:24:04;100130.03;;;9.11;100.00
54042;BME280;41156;51.508;5.406;2023-03-25T00:27:05;100116.56;;;9.11;100.00
54042;BME280;41156;51.508;5.406;2023-03-25T00:30:05;100109.16;;;9.06;100.00
54042;BME280;41156;51.508;5.406;2023-03-25T00:33:06;100116.84;;;9.02;100.00
54042;BME280;41156;51.508;5.406;2023-03-25T00:36:10;100120.38;;;9.03;100.00
54042;BME280;41156;51.508;5.406;2023-03-25T00:39:13;100111.69;;;9.01;100.00
54042;BME280;41156;51.508;5.406;2023-03-25T00:42:17;100117.69;;;9.03;100.00
54042;BME280;41156;51.508;5.406;2023-03-25T00:45:24;100128.47;;;9.03;100.00
54042;BME280;41156;51.508;5.406;2023-03-25T00:48:25;100113.34;;;9.02;100.00
54042;BME280;41156;51.508;5.406;2023-03-25T00:51:27;100118.94;;;9.00;100.00
54042;BME280;41156;51.508;5.406;2023-03-25T00:54:30;100119.16;;;8.99;100.00
54042;BME280;41156;51.508;5.406;2023-03-25T00:57:33;100113.56;;;9.00;100.00
54042;BME280;41156;51.508;5.406;2023-03-25T01:00:33;100114.63;;;8.99;100.00
54042;BME280;41156;51.508;5.406;2023-03-25T01:03:35;100113.19;;;8.97;100.00
54042;BME280;41156;51.508;5.406;2023-03-25T01:06:39;100104.72;;;8.93;100.00
54042;BME280;41156;51.508;5.406;2023-03-25T01:09:50;100111.59;;;8.89;100.00
54042;BME280;41156;51.508;5.406;2023-03-25T01:12:51;100099.41;;;8.86;100.00
54042;BME280;41156;51.508;5.406;2023-03-25T01:15:51;100103.56;;;8.82;100.00
54042;BME280;41156;51.508;5.406;2023-03-25T01:18:53;100099.84;;;8.83;100.00
54042;BME280;41156;51.508;5.406;2023-03-25T01:21:53;100105.44;;;8.82;100.00
54042;BME280;41156;51.508;5.406;2023-03-25T01:24:53;100105.81;;;8.85;100.00
54042;BME280;41156;51.508;5.406;2023-03-25T01:27:54;100107.09;;;8.83;100.00
54042;BME280;41156;51.508;5.406;2023-03-25T01:31:03;100111.28;;;8.79;100.00
54042;BME280;41156;51.508;5.406;2023-03-25T01:34:04;100103.84;;;8.74;100.00
54042;BME280;41156;51.508;5.406;2023-03-25T01:37:04;100107.59;;;8.73;100.00
54042;BME280;41156;51.508;5.406;2023-03-25T01:40:06;100122.69;;;8.74;100.00
54042;BME280;41156;51.508;5.406;2023-03-25T01:43:10;100116.88;;;8.77;100.00
54042;BME280;41156;51.508;5.406;2023-03-25T01:46:12;100110.69;;;8.77;100.00
54042;BME280;41156;51.508;5.406;2023-03-25T01:49:20;100118.97;;;8.75;100.00
54042;BME280;41156;51.508;5.406;2023-03-25T01:52:24;100105.13;;;8.72;100.00
54042;BME280;41156;51.508;5.406;2023-03-25T01:55:25;100103.47;;;8.70;100.00
54042;BME280;41156;51.508;5.406;2023-03-25T01:58:28;100109.28;;;8.67;100.00
54042;BME280;41156;51.508;5.406;2023-03-25T02:01:30;100109.28;;;8.67;100.00
54042;BME280;41156;51.508;5.406;2023-03-25T02:04:36;100101.44;;;8.66;100.00
54042;BME280;41156;51.508;5.406;2023-03-25T02:07:41;100100.63;;;8.65;100.00
54042;BME280;41156;51.508;5.406;2023-03-25T02:10:44;100105.56;;;8.68;100.00
54042;BME280;41156;51.508;5.406;2023-03-25T02:13:45;100102.88;;;8.68;100.00
54042;BME280;41156;51.508;5.406;2023-03-25T02:17:11;100095.81;;;8.67;100.00
54042;BME280;41156;51.508;5.406;2023-03-25T02:27:08;100090.66;;;8.66;100.00
54042;BME280;41156;51.508;5.406;2023-03-25T02:30:28;100091.28;;;8.68;100.00
54042;BME280;41156;51.508;5.406;2023-03-25T02:37:25;100098.53;;;8.67;100.00
54042;BME280;41156;51.508;5.406;2023-03-25T02:40:38;100094.19;;;8.66;100.00
54042;BME280;41156;51.508;5.406;2023-03-25T02:43:56;100095.00;;;8.67;100.00
54042;BME280;41156;51.508;5.406;2023-03-25T02:47:01;100093.81;;;8.63;100.00
54042;BME280;41156;51.508;5.406;2023-03-25T02:50:08;100097.75;;;8.60;100.00
54042;BME280;41156;51.508;5.406;2023-03-25T02:53:12;100088.28;;;8.58;100.00
54042;BME280;41156;51.508;5.406;2023-03-25T02:56:15;100083.75;;;8.51;100.00
54042;BME280;41156;51.508;5.406;2023-03-25T02:59:21;100083.59;;;8.46;100.00
54042;BME280;41156;51.508;5.406;2023-03-25T03:02:24;100085.03;;;8.42;100.00
54042;BME280;41156;51.508;5.406;2023-03-25T03:05:28;100083.84;;;8.38;100.00
54042;BME280;41156;51.508;5.406;2023-03-25T03:11:56;100073.88;;;8.39;100.00
54042;BME280;41156;51.508;5.406;2023-03-25T03:15:52;100074.69;;;8.39;100.00
54042;BME280;41156;51.508;5.406;2023-03-25T03:25:19;100063.31;;;8.37;100.00
54042;BME280;41156;51.508;5.406;2023-03-25T03:28:34;100066.00;;;8.37;100.00
54042;BME280;41156;51.508;5.406;2023-03-25T03:31:51;100067.69;;;8.38;100.00
54042;BME280;41156;51.508;5.406;2023-03-25T03:35:01;100061.47;;;8.38;100.00
54042;BME280;41156;51.508;5.406;2023-03-25T03:38:09;100073.06;;;8.38;100.00
54042;BME280;41156;51.508;5.406;2023-03-25T03:41:13;100074.69;;;8.39;100.00
54042;BME280;41156;51.508;5.406;2023-03-25T03:44:19;100076.56;;;8.39;100.00
54042;BME280;41156;51.508;5.406;2023-03-25T03:47:24;100075.94;;;8.43;100.00
54042;BME280;41156;51.508;5.406;2023-03-25T03:50:30;100059.78;;;8.43;100.00
54042;BME280;41156;51.508;5.406;2023-03-25T03:53:41;100062.50;;;8.43;100.00
54042;BME280;41156;51.508;5.406;2023-03-25T04:03:21;100066.94;;;8.24;100.00
54042;BME280;41156;51.508;5.406;2023-03-25T04:06:38;100074.41;;;8.22;100.00
54042;BME280;41156;51.508;5.406;2023-03-25T04:09:55;100073.97;;;8.25;100.00
54042;BME280;41156;51.508;5.406;2023-03-25T04:12:59;100077.47;;;8.26;100.00
54042;BME280;41156;51.508;5.406;2023-03-25T04:16:02;100068.16;;;8.28;100.00
54042;BME280;41156;51.508;5.406;2023-03-25T04:19:04;100067.78;;;8.25;100.00
54042;BME280;41156;51.508;5.406;2023-03-25T04:22:05;100074.63;;;8.21;100.00
54042;BME280;41156;51.508;5.406;2023-03-25T04:25:06;100077.75;;;8.18;100.00
54042;BME280;41156;51.508;5.406;2023-03-25T04:28:07;100074.03;;;8.19;100.00
54042;BME280;41156;51.508;5.406;2023-03-25T04:31:14;100064.06;;;8.19;100.00
54042;BME280;41156;51.508;5.406;2023-03-25T04:34:15;100074.63;;;8.21;100.00
54042;BME280;41156;51.508;5.406;2023-03-25T04:37:15;100069.88;;;8.23;100.00
54042;BME280;41156;51.508;5.406;2023-03-25T04:40:15;100073.97;;;8.25;100.00
54042;BME280;41156;51.508;5.406;2023-03-25T04:43:17;100074.78;;;8.26;100.00
54042;BME280;41156;51.508;5.406;2023-03-25T04:46:18;100073.16;;;8.25;100.00
54042;BME280;41156;51.508;5.406;2023-03-25T04:49:20;100085.97;;;8.29;100.00
54042;BME280;41156;51.508;5.406;2023-03-25T04:52:20;100081.84;;;8.27;100.00
54042;BME280;41156;51.508;5.406;2023-03-25T04:55:21;100069.63;;;8.24;100.00
54042;BME280;41156;51.508;5.406;2023-03-25T04:58:21;100081.66;;;8.22;100.00
54042;BME280;41156;51.508;5.406;2023-03-25T05:01:27;100072.78;;;8.21;100.00
54042;BME280;41156;51.508;5.406;2023-03-25T05:04:31;100071.13;;;8.20;100.00
54042;BME280;41156;51.508;5.406;2023-03-25T05:07:32;100066.56;;;8.21;100.00
54042;BME280;41156;51.508;5.406;2023-03-25T05:10:33;100074.84;;;8.19;100.00
54042;BME280;41156;51.508;5.406;2023-03-25T05:13:35;100064.28;;;8.18;100.00
54042;BME280;41156;51.508;5.406;2023-03-25T05:16:35;100063.91;;;8.14;100.00
54042;BME280;41156;51.508;5.406;2023-03-25T05:19:36;100078.63;;;8.11;100.00
54042;BME280;41156;51.508;5.406;2023-03-25T05:22:37;100062.94;;;8.08;100.00
54042;BME280;41156;51.508;5.406;2023-03-25T05:25:38;100081.34;;;8.11;100.00
54042;BME280;41156;51.508;5.406;2023-03-25T05:28:39;100087.31;;;8.13;100.00
54042;BME280;41156;51.508;5.406;2023-03-25T05:31:41;100081.94;;;8.13;100.00
54042;BME280;41156;51.508;5.406;2023-03-25T05:34:44;100093.50;;;8.14;100.00
54042;BME280;41156;51.508;5.406;2023-03-25T05:37:47;100090.16;;;8.19;100.00
54042;BME280;41156;51.508;5.406;2023-03-25T05:40:49;100089.75;;;8.22;100.00
54042;BME280;41156;51.508;5.406;2023-03-25T05:43:49;100106.72;;;8.22;100.00
54042;BME280;41156;51.508;5.406;2023-03-25T05:46:50;100089.16;;;8.20;100.00
54042;BME280;41156;51.508;5.406;2023-03-25T05:49:51;100096.78;;;8.23;100.00
54042;BME280;41156;51.508;5.406;2023-03-25T05:52:53;100101.09;;;8.24;100.00
54042;BME280;41156;51.508;5.406;2023-03-25T05:55:54;100103.81;;;8.24;100.00
54042;BME280;41156;51.508;5.406;2023-03-25T05:58:54;100105.47;;;8.25;100.00
54042;BME280;41156;51.508;5.406;2023-03-25T06:01:56;100103.59;;;8.25;100.00
54042;BME280;41156;51.508;5.406;2023-03-25T06:04:56;100108.75;;;8.27;100.00
54042;BME280;41156;51.508;5.406;2023-03-25T06:07:57;100121.00;;;8.23;100.00
54042;BME280;41156;51.508;5.406;2023-03-25T06:10:57;100119.78;;;8.19;100.00
54042;BME280;41156;51.508;5.406;2023-03-25T06:13:57;100124.56;;;8.17;100.00
54042;BME280;41156;51.508;5.406;2023-03-25T06:16:58;100122.91;;;8.15;100.00
54042;BME280;41156;51.508;5.406;2023-03-25T06:19:58;100123.50;;;8.18;100.00
54042;BME280;41156;51.508;5.406;2023-03-25T06:22:59;100115.44;;;8.18;100.00
54042;BME280;41156;51.508;5.406;2023-03-25T06:26:01;100123.50;;;8.18;100.00
54042;BME280;41156;51.508;5.406;2023-03-25T06:29:03;100122.03;;;8.22;100.00
54042;BME280;41156;51.508;5.406;2023-03-25T06:32:04;100123.69;;;8.23;100.00
54042;BME280;41156;51.508;5.406;2023-03-25T06:35:06;100123.25;;;8.26;100.00
54042;BME280;41156;51.508;5.406;2023-03-25T06:38:09;100125.06;;;8.32;100.00
54042;BME280;41156;51.508;5.406;2023-03-25T06:41:10;100118.22;;;8.36;100.00
54042;BME280;41156;51.508;5.406;2023-03-25T06:44:10;100133.31;;;8.37;100.00
54042;BME280;41156;51.508;5.406;2023-03-25T06:47:10;100129.16;;;8.48;100.00
54042;BME280;41156;51.508;5.406;2023-03-25T06:50:11;100131.69;;;8.68;100.00
54042;BME280;41156;51.508;5.406;2023-03-25T06:53:12;100146.28;;;8.79;100.00
54042;BME280;41156;51.508;5.406;2023-03-25T06:56:12;100146.84;;;8.87;100.00
54042;BME280;41156;51.508;5.406;2023-03-25T06:59:12;100157.16;;;8.91;100.00
54042;BME280;41156;51.508;5.406;2023-03-25T07:02:13;100148.50;;;8.88;100.00
54042;BME280;41156;51.508;5.406;2023-03-25T07:05:14;100146.13;;;8.99;100.00
54042;BME280;41156;51.508;5.406;2023-03-25T07:08:14;100151.66;;;9.04;100.00
54042;BME280;41156;51.508;5.406;2023-03-25T07:11:25;100144.66;;;9.03;100.00
54042;BME280;41156;51.508;5.406;2023-03-25T07:14:26;100145.03;;;9.06;100.00
54042;BME280;41156;51.508;5.406;2023-03-25T07:17:26;100139.13;;;9.16;100.00
54042;BME280;41156;51.508;5.406;2023-03-25T07:20:27;100145.63;;;9.27;100.00
54042;BME280;41156;51.508;5.406;2023-03-25T07:23:27;100146.84;;;9.31;100.00
54042;BME280;41156;51.508;5.406;2023-03-25T07:26:27;100143.53;;;9.29;100.00
54042;BME280;41156;51.508;5.406;2023-03-25T07:29:28;100152.47;;;9.30;100.00
54042;BME280;41156;51.508;5.406;2023-03-25T07:32:28;100151.25;;;9.25;100.00
54042;BME280;41156;51.508;5.406;2023-03-25T07:35:29;100156.50;;;9.20;100.00
54042;BME280;41156;51.508;5.406;2023-03-25T07:38:29;100163.59;;;9.15;100.00
54042;BME280;41156;51.508;5.406;2023-03-25T07:41:29;100165.06;;;9.11;100.00
54042;BME280;41156;51.508;5.406;2023-03-25T07:44:30;100163.50;;;9.03;100.00
54042;BME280;41156;51.508;5.406;2023-03-25T07:47:30;100158.63;;;8.93;100.00
54042;BME280;41156;51.508;5.406;2023-03-25T07:50:30;100167.34;;;8.88;100.00
54042;BME280;41156;51.508;5.406;2023-03-25T07:53:31;100171.34;;;8.86;100.00
54042;BME280;41156;51.508;5.406;2023-03-25T07:56:32;100171.09;;;8.87;100.00
54042;BME280;41156;51.508;5.406;2023-03-25T07:59:32;100177.84;;;8.97;100.00
54042;BME280;41156;51.508;5.406;2023-03-25T08:02:32;100173.22;;;9.04;100.00
54042;BME280;41156;51.508;5.406;2023-03-25T08:05:33;100171.19;;;9.24;100.00
54042;BME280;41156;51.508;5.406;2023-03-25T08:08:34;100183.59;;;9.69;100.00
54042;BME280;41156;51.508;5.406;2023-03-25T08:11:35;100188.66;;;10.45;100.00
54042;BME280;41156;51.508;5.406;2023-03-25T08:14:35;100185.09;;;10.86;100.00
54042;BME280;41156;51.508;5.406;2023-03-25T08:17:35;100186.91;;;11.04;100.00
54042;BME280;41156;51.508;5.406;2023-03-25T08:20:36;100198.75;;;11.03;100.00
54042;BME280;41156;51.508;5.406;2023-03-25T08:23:36;100200.50;;;10.86;100.00
54042;BME280;41156;51.508;5.406;2023-03-25T08:26:37;100201.69;;;10.48;100.00
54042;BME280;41156;51.508;5.406;2023-03-25T08:29:37;100210.94;;;10.22;100.00
54042;BME280;41156;51.508;5.406;2023-03-25T08:32:39;100220.13;;;10.02;100.00
54042;BME280;41156;51.508;5.406;2023-03-25T08:35:39;100220.13;;;9.84;100.00
54042;BME280;41156;51.508;5.406;2023-03-25T08:38:40;100220.06;;;9.72;100.00
54042;BME280;41156;51.508;5.406;2023-03-25T08:41:40;100231.16;;;9.63;100.00
54042;BME280;41156;51.508;5.406;2023-03-25T08:44:41;100216.97;;;9.50;100.00
54042;BME280;41156;51.508;5.406;2023-03-25T08:47:42;100217.34;;;9.53;100.00
54042;BME280;41156;51.508;5.406;2023-03-25T08:50:42;100221.38;;;9.62;100.00
54042;BME280;41156;51.508;5.406;2023-03-25T08:53:43;100215.03;;;9.75;100.00
54042;BME280;41156;51.508;5.406;2023-03-25T08:56:43;100212.09;;;9.95;100.00
54042;BME280;41156;51.508;5.406;2023-03-25T08:59:43;100214.84;;;10.26;100.00
54042;BME280;41156;51.508;5.406;2023-03-25T09:02:44;100217.56;;;10.44;100.00
54042;BME280;41156;51.508;5.406;2023-03-25T09:05:45;100213.06;;;10.38;100.00
54042;BME280;41156;51.508;5.406;2023-03-25T09:08:46;100225.34;;;10.52;100.00
54042;BME280;41156;51.508;5.406;2023-03-25T09:11:47;100217.50;;;10.63;100.00
54042;BME280;41156;51.508;5.406;2023-03-25T09:14:47;100212.69;;;10.77;100.00
54042;BME280;41156;51.508;5.406;2023-03-25T09:17:47;100209.69;;;11.08;100.00
54042;BME280;41156;51.508;5.406;2023-03-25T09:20:48;100199.34;;;11.29;100.00
54042;BME280;41156;51.508;5.406;2023-03-25T09:23:48;100209.00;;;11.48;100.00
54042;BME280;41156;51.508;5.406;2023-03-25T09:26:48;100203.06;;;11.75;100.00
54042;BME280;41156;51.508;5.406;2023-03-25T09:29:49;100203.28;;;11.85;100.00
54042;BME280;41156;51.508;5.406;2023-03-25T09:32:49;100205.75;;;11.87;100.00
54042;BME280;41156;51.508;5.406;2023-03-25T09:35:49;100213.88;;;11.87;100.00
54042;BME280;41156;51.508;5.406;2023-03-25T09:38:50;100214.09;;;12.09;100.00
54042;BME280;41156;51.508;5.406;2023-03-25T09:42:07;100222.03;;;12.28;100.00
54042;BME280;41156;51.508;5.406;2023-03-25T09:45:33;100231.13;;;12.50;100.00
54042;BME280;41156;51.508;5.406;2023-03-25T09:48:42;100233.94;;;12.55;100.00
54042;BME280;41156;51.508;5.406;2023-03-25T09:51:45;100221.56;;;12.31;100.00
54042;BME280;41156;51.508;5.406;2023-03-25T09:54:51;100220.25;;;12.33;100.00
54042;BME280;41156;51.508;5.406;2023-03-25T09:58:00;100240.72;;;12.41;100.00
54042;BME280;41156;51.508;5.406;2023-03-25T10:04:39;100237.09;;;12.81;100.00
54042;BME280;41156;51.508;5.406;2023-03-25T10:11:03;100244.69;;;13.13;100.00
54042;BME280;41156;51.508;5.406;2023-03-25T10:14:16;100211.06;;;13.31;100.00
54042;BME280;41156;51.508;5.406;2023-03-25T10:20:39;100231.88;;;13.59;100.00
54042;BME280;41156;51.508;5.406;2023-03-25T10:24:16;100230.19;;;13.58;96.41
54042;BME280;41156;51.508;5.406;2023-03-25T10:27:21;100233.56;;;13.65;100.00
54042;BME280;41156;51.508;5.406;2023-03-25T10:30:31;100217.59;;;13.69;93.26
54042;BME280;41156;51.508;5.406;2023-03-25T10:33:36;100230.19;;;13.58;99.58
54042;BME280;41156;51.508;5.406;2023-03-25T10:36:40;100227.44;;;13.36;95.86
54042;BME280;41156;51.508;5.406;2023-03-25T10:39:43;100233.50;;;13.26;100.00
54042;BME280;41156;51.508;5.406;2023-03-25T10:43:27;100224.53;;;13.09;91.85
54042;BME280;41156;51.508;5.406;2023-03-25T10:49:32;100224.41;;;13.72;91.73
54042;BME280;41156;51.508;5.406;2023-03-25T10:52:33;100240.72;;;13.94;94.00
54042;BME280;41156;51.508;5.406;2023-03-25T10:55:34;100237.19;;;13.93;86.37
54042;BME280;41156;51.508;5.406;2023-03-25T10:58:37;100238.97;;;14.04;88.63
54042;BME280;41156;51.508;5.406;2023-03-25T11:01:40;100230.25;;;14.24;87.65
54042;BME280;41156;51.508;5.406;2023-03-25T11:04:43;100235.78;;;14.35;86.73
54042;BME280;41156;51.508;5.406;2023-03-25T11:07:56;100245.09;;;14.39;83.24
54042;BME280;41156;51.508;5.406;2023-03-25T11:11:03;100249.38;;;14.35;81.60
54042;BME280;41156;51.508;5.406;2023-03-25T11:14:05;100262.78;;;14.19;83.50
54042;BME280;41156;51.508;5.406;2023-03-25T11:17:15;100257.44;;;14.02;81.24
54042;BME280;41156;51.508;5.406;2023-03-25T11:20:20;100255.22;;;13.99;82.91
54042;BME280;41156;51.508;5.406;2023-03-25T11:23:28;100263.09;;;14.01;81.68
54042;BME280;41156;51.508;5.406;2023-03-25T11:26:38;100253.56;;;13.98;83.44
54042;BME280;41156;51.508;5.406;2023-03-25T11:29:39;100255.84;;;14.06;79.49
54042;BME280;41156;51.508;5.406;2023-03-25T11:32:40;100265.44;;;14.14;82.93
54042;BME280;41156;51.508;5.406;2023-03-25T11:35:42;100246.19;;;14.16;80.59
54042;BME280;41156;51.508;5.406;2023-03-25T11:38:46;100252.75;;;14.20;80.29
54042;BME280;41156;51.508;5.406;2023-03-25T11:41:50;100267.47;;;14.24;79.72
54042;BME280;41156;51.508;5.406;2023-03-25T11:44:52;100255.91;;;14.12;81.06
54042;BME280;41156;51.508;5.406;2023-03-25T11:47:57;100255.66;;;13.91;76.52
54042;BME280;41156;51.508;5.406;2023-03-25T11:51:01;100258.34;;;13.69;77.67
54042;BME280;41156;51.508;5.406;2023-03-25T11:54:11;100245.84;;;13.51;76.70
54042;BME280;41156;51.508;5.406;2023-03-25T11:57:16;100254.91;;;13.40;81.57
54042;BME280;41156;51.508;5.406;2023-03-25T12:03:30;100254.47;;;13.31;84.22
54042;BME280;41156;51.508;5.406;2023-03-25T12:06:30;100253.00;;;13.23;87.00
54042;BME280;41156;51.508;5.406;2023-03-25T12:09:31;100245.88;;;13.34;88.42
54042;BME280;41156;51.508;5.406;2023-03-25T12:12:41;100256.72;;;13.51;88.42
54042;BME280;41156;51.508;5.406;2023-03-25T12:29:13;100256.41;;;12.68;100.00
54042;BME280;41156;51.508;5.406;2023-03-25T12:36:20;100245.63;;;12.73;100.00
54042;BME280;41156;51.508;5.406;2023-03-25T12:39:43;100259.63;;;12.82;100.00
54042;BME280;41156;51.508;5.406;2023-03-25T12:43:03;100245.09;;;13.05;100.00
54042;BME280;41156;51.508;5.406;2023-03-25T12:49:40;100253.88;;;12.78;100.00
54042;BME280;41156;51.508;5.406;2023-03-25T12:59:09;100269.00;;;12.33;100.00
54042;BME280;41156;51.508;5.406;2023-03-25T13:02:43;100271.34;;;12.01;100.00
54042;BME280;41156;51.508;5.406;2023-03-25T13:09:23;100270.75;;;12.39;100.00
54042;BME280;41156;51.508;5.406;2023-03-25T13:12:29;100261.25;;;12.66;100.00
54042;BME280;41156;51.508;5.406;2023-03-25T13:18:47;100271.81;;;12.96;100.00
54042;BME280;41156;51.508;5.406;2023-03-25T13:21:51;100269.66;;;12.98;100.00
54042;BME280;41156;51.508;5.406;2023-03-25T13:24:57;100266.53;;;12.89;100.00
54042;BME280;41156;51.508;5.406;2023-03-25T13:28:02;100264.53;;;12.68;100.00
54042;BME280;41156;51.508;5.406;2023-03-25T13:31:05;100263.75;;;12.55;100.00
54042;BME280;41156;51.508;5.406;2023-03-25T13:34:18;100261.22;;;12.37;100.00
54042;BME280;41156;51.508;5.406;2023-03-25T13:37:37;100265.28;;;12.23;100.00
54042;BME280;41156;51.508;5.406;2023-03-25T13:44:01;100284.75;;;12.08;100.00
54042;BME280;41156;51.508;5.406;2023-03-25T13:47:24;100283.28;;;12.29;100.00
54042;BME280;41156;51.508;5.406;2023-03-25T13:50:31;100270.63;;;12.75;100.00
54042;BME280;41156;51.508;5.406;2023-03-25T13:53:36;100284.78;;;12.94;100.00
54042;BME280;41156;51.508;5.406;2023-03-25T14:10:38;100285.28;;;12.62;100.00
54042;BME280;41156;51.508;5.406;2023-03-25T14:13:53;100284.94;;;12.58;100.00
54042;BME280;41156;51.508;5.406;2023-03-25T14:16:56;100293.78;;;12.54;100.00
54042;BME280;41156;51.508;5.406;2023-03-25T14:19:59;100271.63;;;12.57;100.00
54042;BME280;41156;51.508;5.406;2023-03-25T14:23:11;100280.78;;;12.68;100.00
54042;BME280;41156;51.508;5.406;2023-03-25T14:26:16;100294.38;;;12.85;91.41
54042;BME280;41156;51.508;5.406;2023-03-25T14:29:24;100274.03;;;13.16;100.00
54042;BME280;41156;51.508;5.406;2023-03-25T14:32:33;100286.06;;;13.54;100.00
54042;BME280;41156;51.508;5.406;2023-03-25T14:38:54;100286.44;;;13.80;97.17
54042;BME280;41156;51.508;5.406;2023-03-25T14:42:07;100298.72;;;13.65;100.00
54042;BME280;41156;51.508;5.406;2023-03-25T14:52:14;100305.50;;;13.17;100.00
54042;BME280;41156;51.508;5.406;2023-03-25T14:55:27;100301.56;;;13.08;98.73
54042;BME280;41156;51.508;5.406;2023-03-25T14:58:28;100301.25;;;13.04;100.00
54042;BME280;41156;51.508;5.406;2023-03-25T15:01:33;100307.16;;;13.01;100.00
54042;BME280;41156;51.508;5.406;2023-03-25T15:04:36;100295.50;;;13.01;100.00
54042;BME280;41156;51.508;5.406;2023-03-25T15:07:41;100310.19;;;13.05;100.00
54042;BME280;41156;51.508;5.406;2023-03-25T15:10:47;100316.19;;;13.07;100.00
54042;BME280;41156;51.508;5.406;2023-03-25T15:13:50;100318.34;;;13.05;90.49
54042;BME280;41156;51.508;5.406;2023-03-25T15:16:57;100312.66;;;13.06;94.04
54042;BME280;41156;51.508;5.406;2023-03-25T15:23:29;100321.69;;;13.12;86.96
54042;BME280;41156;51.508;5.406;2023-03-25T15:29:41;100335.56;;;12.99;89.80
54042;BME280;41156;51.508;5.406;2023-03-25T15:32:57;100330.91;;;12.94;88.33
54042;BME280;41156;51.508;5.406;2023-03-25T15:56:26;100342.72;;;12.88;99.93
54042;BME280;41156;51.508;5.406;2023-03-25T15:59:34;100330.81;;;12.77;93.06
54042;BME280;41156;51.508;5.406;2023-03-25T16:06:02;100352.91;;;12.69;91.21
54042;BME280;41156;51.508;5.406;2023-03-25T16:09:05;100362.00;;;12.63;92.68
54042;BME280;41156;51.508;5.406;2023-03-25T16:12:08;100355.31;;;12.53;100.00
54042;BME280;41156;51.508;5.406;2023-03-25T16:15:13;100373.69;;;12.51;98.32
54042;BME280;41156;51.508;5.406;2023-03-25T16:18:14;100372.03;;;12.50;98.42
54042;BME280;41156;51.508;5.406;2023-03-25T16:21:15;100372.03;;;12.50;100.00
54042;BME280;41156;51.508;5.406;2023-03-25T16:24:16;100365.47;;;12.46;99.46
54042;BME280;41156;51.508;5.406;2023-03-25T16:27:25;100373.84;;;12.45;97.13
54042;BME280;41156;51.508;5.406;2023-03-25T16:30:38;100380.53;;;12.42;98.96
54042;BME280;41156;51.508;5.406;2023-03-25T16:33:39;100384.91;;;12.43;100.00
54042;BME280;41156;51.508;5.406;2023-03-25T16:36:45;100386.47;;;12.39;100.00
54042;BME280;41156;51.508;5.406;2023-03-25T16:39:54;100391.28;;;12.37;99.71
54042;BME280;41156;51.508;5.406;2023-03-25T16:43:03;100389.88;;;12.34;100.00
54042;BME280;41156;51.508;5.406;2023-03-25T16:46:06;100402.47;;;12.29;100.00
54042;BME280;41156;51.508;5.406;2023-03-25T16:49:12;100405.06;;;12.24;100.00
54042;BME280;41156;51.508;5.406;2023-03-25T16:52:17;100402.81;;;12.20;100.00
54042;BME280;41156;51.508;5.406;2023-03-25T16:55:35;100408.13;;;12.15;100.00
54042;BME280;41156;51.508;5.406;2023-03-25T16:58:56;100399.88;;;12.10;100.00
54042;BME280;41156;51.508;5.406;2023-03-25T17:01:59;100397.41;;;12.09;100.00
54042;BME280;41156;51.508;5.406;2023-03-25T17:08:16;100410.59;;;12.05;100.00
54042;BME280;41156;51.508;5.406;2023-03-25T17:11:19;100408.84;;;11.99;100.00
54042;BME280;41156;51.508;5.406;2023-03-25T17:14:31;100420.38;;;11.94;100.00
54042;BME280;41156;51.508;5.406;2023-03-25T17:17:47;100413.53;;;11.92;100.00
54042;BME280;41156;51.508;5.406;2023-03-25T17:20:54;100415.06;;;11.88;100.00
54042;BME280;41156;51.508;5.406;2023-03-25T17:24:01;100417.41;;;11.84;100.00
54042;BME280;41156;51.508;5.406;2023-03-25T17:27:19;100423.28;;;11.81;100.00
54042;BME280;41156;51.508;5.406;2023-03-25T17:30:43;100432.69;;;11.78;100.00
54042;BME280;41156;51.508;5.406;2023-03-25T17:33:52;100438.78;;;11.74;100.00
54042;BME280;41156;51.508;5.406;2023-03-25T17:36:57;100442.34;;;11.74;100.00
54042;BME280;41156;51.508;5.406;2023-03-25T17:40:05;100449.84;;;11.72;100.00
54042;BME280;41156;51.508;5.406;2023-03-25T17:43:17;100454.66;;;11.70;100.00
54042;BME280;41156;51.508;5.406;2023-03-25T17:46:26;100450.56;;;11.68;100.00
54042;BME280;41156;51.508;5.406;2023-03-25T17:49:27;100444.75;;;11.64;100.00
54042;BME280;41156;51.508;5.406;2023-03-25T17:52:27;100468.31;;;11.63;100.00
54042;BME280;41156;51.508;5.406;2023-03-25T17:55:28;100471.47;;;11.60;100.00
54042;BME280;41156;51.508;5.406;2023-03-25T17:58:29;100460.75;;;11.54;100.00
54042;BME280;41156;51.508;5.406;2023-03-25T18:01:30;100464.06;;;11.56;100.00
54042;BME280;41156;51.508;5.406;2023-03-25T18:04:31;100467.22;;;11.53;100.00
54042;BME280;41156;51.508;5.406;2023-03-25T18:07:31;100474.97;;;11.49;100.00
54042;BME280;41156;51.508;5.406;2023-03-25T18:10:33;100472.97;;;11.44;100.00
54042;BME280;41156;51.508;5.406;2023-03-25T18:13:34;100478.59;;;11.43;100.00
54042;BME280;41156;51.508;5.406;2023-03-25T18:16:34;100470.56;;;11.36;100.00
54042;BME280;41156;51.508;5.406;2023-03-25T18:19:35;100474.19;;;11.30;100.00
54042;BME280;41156;51.508;5.406;2023-03-25T18:22:35;100474.28;;;11.23;100.00